Harrington, Maine
Current Conditions -  °F | °C
As of 1:15 AM on Monday 22 Dec 2014 (Local Time) from KBHB Reporting Station
Scattered Clouds Scattered Clouds  
Wind Chill: 19°   Ceiling: Unl
Heat Index: 25°   Visibility: 10mi
Dew Point: 25°   Wind: 5mph
Humidity: 100%   Direction: 360°N
Pressure: 30.39"   Gusts: NA
Location:  44.61°N, 67.82°W
Report Text: KBHB 220615Z AUTO 36004KT 10SM SCT065 M04/M04 A3039 RMK AO1
Loading
Personal Weather Stations






























Interactive Weather Map New forecast layout! Learn more

10-Day Weather Forecast

Advertisements
Track Severe Weather on mobile